Acton, TX

6:51 PM CST on December 18, 2014 (GMT -0600)
Mallard Pointe | Change Station
CLOSE
Current Station
Personal Weather Station
Location: Granbury, TX
Elevation: 784 ft
Nearby Weather Stations

Elev 784 ft 32.46 °N, 97.75 °W | Updated 13 minutes ago

Overcast
Overcast
48.6 °F
Feels Like 49 °F
N
2.2
Wind Variable Wind from NE

Today
High -- | Low -- °F
--% Chance of Precip.
Yesterday
High -- | Low -- °F
Precip. -- in
7:26 AM 5:28 PM
Waning Crescent, 11% visible
Pressure 30.15 in
Visibility 10.0 miles
Clouds Overcast 1300 ft
Windchill 49 °F
Dew Point 44 °F
Humidity 83%
Rainfall 0.00 in
Snow Depth Not available.
UV 0 out of 12
Pollen 9.00 out of 12
Air Quality Not available.
Flu Activity Not available.
METAR KGDJ 190035Z AUTO 02005KT 10SM OVC013 10/07 A3015 RMK AO2 T01000071

More Conditions Fewer Conditions

Pressure 30.15 in
Visibility 10.0 miles
Clouds Overcast 1300 ft
Windchill 49 °F
Dew Point 44 °F
Humidity 83%
Rainfall 0.00 in
Snow Depth Not available.
UV 0 out of 12
Pollen 9.00 out of 12
Air Quality Not available.
Flu Activity Not available.
METAR KGDJ 190035Z AUTO 02005KT 10SM OVC013 10/07 A3015 RMK AO2 T01000071

More Conditions Fewer Conditions

10-Day Weather Forecast

Almanac

Astronomy

Dec. 18, 2014 Rise Set
Actual Time
Civil Twilight
Nautical Twilight
Astronomical Twilight
Moon
Length of Visible Light
Length of Day
Tomorrow will be .
, % of the Moon is Illuminated

Today's Extremes

State Highs State Lows

Community

WunderPhotos

Upload Photos

1,779,016 photos uploaded!

WunderBlogs® & News

Nearby

Air Quality

  Air Quality AQ Index Pollutant
Not available.

Snow Depth

Station Depth Elevation

Earthquake Activity

City Distance Mag. Time & Date
Minimum magnitude displayed is 2.5.

Coastal Water Temperatures

Place Temperature

Nearby Weather Stations